Time;durP1;ratioP1;P1;durP2;ratioP2;P2;SDS_P1;SDS_P2;PMS_P1;PMS_P2;Temp;Humidity;BMP_temperature;BMP_pressure;BME280_temperature;BME280_humidity;BME280_pressure;Samples;Min_cycle;Max_cycle;Signal;HPM_P1;HPM_P2
2023/03/23 00:00:08;;;;;;;9.48;4.75;;;7.10;99.90;;;;;;5096488;28;20020;-74
2023/03/23 00:02:35;;;;;;;;;;;7.00;99.90;;;;;;5096629;28;20028;-74
2023/03/23 00:05:06;;;;;;;8.45;5.40;;;7.00;99.90;;;;;;5078391;28;19966;-75
2023/03/23 00:07:33;;;;;;;10.73;5.07;;;7.00;99.90;;;;;;5078037;28;20070;-75
2023/03/23 00:10:02;;;;;;;8.32;5.50;;;6.90;99.90;;;;;;5096064;28;20364;-74
2023/03/23 00:12:35;;;;;;;9.13;4.90;;;6.90;99.90;;;;;;5096205;28;20032;-74
2023/03/23 00:15:03;;;;;;;9.85;5.57;;;6.90;99.90;;;;;;5077890;28;20032;-74
2023/03/23 00:17:30;;;;;;;8.95;4.97;;;6.80;99.90;;;;;;5078215;28;20035;-75
2023/03/23 00:19:56;;;;;;;8.30;4.63;;;6.80;99.90;;;;;;5094858;28;20114;-75
2023/03/23 00:22:24;;;;;;;10.35;4.80;;;6.70;99.90;;;;;;5095716;28;20079;-75
2023/03/23 00:24:50;;;;;;;10.68;4.90;;;6.70;99.90;;;;;;5096249;28;20020;-75
2023/03/23 00:27:17;;;;;;;5.97;5.05;;;6.70;99.90;;;;;;5078255;28;20028;-75
2023/03/23 00:29:45;;;;;;;6.30;4.80;;;6.60;99.90;;;;;;5095787;28;20036;-75
2023/03/23 00:32:16;;;;;;;9.35;5.13;;;6.60;99.90;;;;;;5094825;28;20102;-74
2023/03/23 00:34:43;;;;;;;12.60;5.22;;;6.60;99.90;;;;;;5096030;28;20031;-74
2023/03/23 00:37:10;;;;;;;9.13;4.50;;;6.50;99.90;;;;;;5096366;28;20345;-75
2023/03/23 00:39:37;;;;;;;8.45;4.65;;;6.50;99.90;;;;;;5096213;28;20039;-75
2023/03/23 00:42:03;;;;;;;11.45;5.30;;;6.50;99.90;;;;;;5077914;28;20028;-75
2023/03/23 00:44:31;;;;;;;16.45;4.82;;;6.50;99.90;;;;;;5077795;28;20032;-75
2023/03/23 00:46:57;;;;;;;10.15;5.35;;;6.50;99.90;;;;;;5078641;28;20024;-74
2023/03/23 00:49:25;;;;;;;6.90;5.05;;;6.40;99.90;;;;;;5094911;28;20181;-74
2023/03/23 00:51:56;;;;;;;7.90;4.88;;;6.40;99.90;;;;;;5094344;28;20468;-74
2023/03/23 00:54:22;;;;;;;6.75;4.72;;;6.40;99.90;;;;;;5095434;28;20048;-75
2023/03/23 00:56:48;;;;;;;7.13;4.80;;;6.30;99.90;;;;;;5077964;28;20039;-74
2023/03/23 00:59:14;;;;;;;7.22;5.20;;;6.30;99.90;;;;;;5077099;28;20392;-74
2023/03/23 01:01:40;;;;;;;10.13;5.13;;;6.30;99.90;;;;;;5095775;28;20028;-75
2023/03/23 01:04:06;;;;;;;9.25;4.80;;;6.30;99.90;;;;;;5077310;28;20098;-74
2023/03/23 01:06:38;;;;;;;9.45;4.75;;;6.20;99.90;;;;;;5095453;28;20456;-74
2023/03/23 01:09:05;;;;;;;10.15;5.50;;;6.20;99.90;;;;;;5095799;28;20028;-74
2023/03/23 01:11:31;;;;;;;13.27;5.35;;;6.20;99.90;;;;;;5077798;28;20464;-74
2023/03/23 01:13:57;;;;;;;8.50;5.60;;;6.10;99.90;;;;;;5077456;28;20077;-74
2023/03/23 01:16:23;;;;;;;7.60;5.18;;;6.10;99.90;;;;;;5096041;28;20451;-74
2023/03/23 01:18:49;;;;;;;9.43;4.70;;;6.10;99.90;;;;;;5077871;28;20097;-75
2023/03/23 01:21:17;;;;;;;10.05;4.88;;;6.10;99.90;;;;;;5078060;28;20455;-74
2023/03/23 01:23:43;;;;;;;7.82;4.93;;;6.00;99.90;;;;;;5095569;28;20062;-74
2023/03/23 01:26:20;;;;;;;8.65;4.75;;;6.00;99.90;;;;;;5095600;28;20075;-74
2023/03/23 01:28:47;;;;;;;7.90;4.72;;;6.00;99.90;;;;;;5095391;28;20055;-75
2023/03/23 01:31:16;;;;;;;6.82;5.00;;;6.00;99.90;;;;;;5094962;28;20054;-74
2023/03/23 01:33:42;;;;;;;;;;;6.00;99.90;;;;;;5095240;28;20027;-74
2023/03/23 01:36:11;;;;;;;7.57;4.47;;;5.90;99.90;;;;;;5094859;28;19923;-74
2023/03/23 01:38:37;;;;;;;5.68;4.38;;;6.00;99.90;;;;;;5094652;28;20034;-74
2023/03/23 01:41:04;;;;;;;10.77;5.15;;;6.00;99.90;;;;;;5076536;28;20024;-74
2023/03/23 01:43:30;;;;;;;6.13;4.93;;;5.90;99.90;;;;;;5094569;28;20028;-74
2023/03/23 01:45:56;;;;;;;12.95;5.07;;;5.90;99.90;;;;;;5094697;28;20085;-74
2023/03/23 01:48:29;;;;;;;7.20;4.97;;;5.80;99.90;;;;;;5076429;28;20452;-74
2023/03/23 01:50:55;;;;;;;6.82;4.85;;;5.80;99.90;;;;;;5094604;28;20043;-74
2023/03/23 01:53:21;;;;;;;10.80;5.53;;;5.70;99.90;;;;;;5094338;28;20062;-74
2023/03/23 01:55:50;;;;;;;11.27;4.93;;;5.70;99.90;;;;;;5094412;28;20028;-74
2023/03/23 01:58:21;;;;;;;5.67;3.47;;;5.70;99.90;;;;;;5094727;28;20020;-74
2023/03/23 02:00:47;;;;;;;7.20;4.57;;;5.60;99.90;;;;;;5094317;28;20618;-74
2023/03/23 02:03:16;;;;;;;10.02;4.90;;;5.60;99.90;;;;;;5076100;28;20483;-74
2023/03/23 02:05:42;;;;;;;;;;;5.60;99.90;;;;;;5095140;28;20410;-74
2023/03/23 02:08:10;;;;;;;5.75;4.18;;;5.60;99.90;;;;;;5076366;28;20454;-74
2023/03/23 02:10:36;;;;;;;7.97;4.60;;;5.60;99.90;;;;;;5076382;28;20119;-75
2023/03/23 02:13:05;;;;;;;10.52;5.00;;;5.60;99.90;;;;;;5076089;28;20032;-74
2023/03/23 02:15:47;;;;;;;12.40;4.65;;;5.50;99.90;;;;;;5094450;28;20053;-75
2023/03/23 02:18:30;;;;;;;6.30;4.50;;;5.50;99.90;;;;;;5093075;28;20043;-75
2023/03/23 02:21:15;;;;;;;8.02;4.18;;;5.50;99.90;;;;;;5093310;28;20039;-74
2023/03/23 02:24:22;;;;;;;5.00;4.10;;;5.40;99.90;;;;;;5076240;28;20460;-74
2023/03/23 02:26:50;;;;;;;8.23;4.32;;;5.40;99.90;;;;;;5094663;28;20035;-75
2023/03/23 02:29:40;;;;;;;8.80;4.65;;;5.30;99.90;;;;;;5098550;28;20020;-75
2023/03/23 02:32:33;;;;;;;7.28;4.90;;;5.30;99.90;;;;;;5080849;28;20138;-75
2023/03/23 02:35:04;;;;;;;6.00;4.45;;;5.30;99.90;;;;;;5078914;28;20110;-75
2023/03/23 02:37:40;;;;;;;6.97;4.80;;;5.20;99.90;;;;;;5078668;28;20364;-75
2023/03/23 02:40:17;;;;;;;7.13;4.60;;;5.20;99.90;;;;;;5078626;28;20111;-74
2023/03/23 02:42:47;;;;;;;10.82;4.57;;;5.20;99.90;;;;;;5096450;28;20059;-74
2023/03/23 02:45:15;;;;;;;7.28;4.75;;;5.20;99.90;;;;;;5078543;28;20062;-75
2023/03/23 02:47:42;;;;;;;4.00;3.60;;;5.20;99.90;;;;;;5095809;28;20028;-75
2023/03/23 02:50:13;;;;;;;7.30;4.88;;;5.20;99.90;;;;;;5095521;28;20028;-74
2023/03/23 02:52:41;;;;;;;8.02;4.82;;;5.10;99.90;;;;;;5094536;28;20069;-74
2023/03/23 02:55:08;;;;;;;6.70;4.13;;;5.10;99.90;;;;;;5095190;28;20052;-75
2023/03/23 02:57:35;;;;;;;6.07;4.13;;;5.10;99.90;;;;;;5093357;28;20024;-75
2023/03/23 03:00:00;;;;;;;5.20;4.47;;;5.10;99.90;;;;;;5094815;28;20025;-74
2023/03/23 03:02:37;;;;;;;7.60;4.60;;;5.10;99.90;;;;;;5094470;28;20032;-75
2023/03/23 03:05:24;;;;;;;7.85;4.97;;;5.10;99.90;;;;;;5076711;28;20024;-74
2023/03/23 03:08:14;;;;;;;6.53;4.45;;;5.00;99.90;;;;;;5077068;28;20489;-75
2023/03/23 03:10:56;;;;;;;10.13;5.15;;;5.00;99.90;;;;;;5077583;28;20024;-75
2023/03/23 03:13:52;;;;;;;7.85;4.43;;;5.00;99.90;;;;;;5076934;28;20036;-74
2023/03/23 03:16:27;;;;;;;8.52;5.30;;;5.00;99.90;;;;;;5078105;28;20479;-74
2023/03/23 03:19:13;;;;;;;7.55;4.57;;;5.00;99.90;;;;;;5079901;28;20036;-74
2023/03/23 03:21:44;;;;;;;5.65;4.32;;;5.00;99.90;;;;;;5098344;28;20080;-74
2023/03/23 03:24:11;;;;;;;7.43;4.47;;;5.00;99.90;;;;;;5098082;28;20372;-74
2023/03/23 03:26:45;;;;;;;7.10;5.47;;;5.00;99.90;;;;;;5079608;28;20020;-74
2023/03/23 03:29:11;;;;;;;8.40;4.45;;;5.00;99.90;;;;;;5098061;28;20028;-74
2023/03/23 03:31:45;;;;;;;7.25;4.68;;;5.00;99.90;;;;;;5098089;28;20020;-75
2023/03/23 03:34:11;;;;;;;7.80;4.75;;;5.00;99.90;;;;;;5097679;28;20467;-75
2023/03/23 03:36:38;;;;;;;7.90;4.45;;;5.00;99.90;;;;;;5098151;28;20116;-75
2023/03/23 03:39:07;;;;;;;8.70;4.78;;;4.90;99.90;;;;;;5097906;28;20589;-75
2023/03/23 03:41:34;;;;;;;12.25;4.20;;;4.90;99.90;;;;;;5095963;28;20031;-74
2023/03/23 03:44:00;;;;;;;6.22;4.22;;;4.90;99.90;;;;;;5079237;28;20395;-74
2023/03/23 03:46:29;;;;;;;8.25;4.32;;;4.90;99.90;;;;;;5098227;28;20024;-75
2023/03/23 03:48:56;;;;;;;9.00;3.95;;;4.90;99.90;;;;;;5080428;28;20087;-75
2023/03/23 03:51:22;;;;;;;6.60;3.97;;;4.90;99.90;;;;;;5078405;28;20441;-74
2023/03/23 03:53:48;;;;;;;5.25;3.72;;;4.90;99.90;;;;;;5078341;28;20032;-74
2023/03/23 03:56:14;;;;;;;7.07;4.18;;;4.90;99.90;;;;;;5078885;28;20031;-74
2023/03/23 03:58:42;;;;;;;8.45;3.92;;;4.90;99.90;;;;;;5096891;28;20047;-74
2023/03/23 04:01:10;;;;;;;5.63;4.30;;;4.90;99.90;;;;;;5078729;28;20072;-75
2023/03/23 04:03:36;;;;;;;6.68;4.30;;;4.90;99.90;;;;;;5078502;28;20430;-74
2023/03/23 04:06:03;;;;;;;7.15;4.00;;;4.90;99.90;;;;;;5079088;28;20027;-74
2023/03/23 04:08:29;;;;;;;4.82;3.92;;;4.90;99.90;;;;;;5078494;28;20028;-74
2023/03/23 04:10:55;;;;;;;4.80;4.05;;;4.80;99.90;;;;;;5078516;28;20031;-74
2023/03/23 04:13:21;;;;;;;5.30;3.88;;;4.80;99.90;;;;;;5096679;28;20040;-74
2023/03/23 04:15:48;;;;;;;5.20;4.18;;;4.80;99.90;;;;;;5096498;28;20452;-74
2023/03/23 04:18:17;;;;;;;7.25;3.95;;;4.80;99.90;;;;;;5096564;28;20028;-74
2023/03/23 04:20:47;;;;;;;6.18;4.10;;;4.80;99.90;;;;;;5077849;28;20032;-75
2023/03/23 04:23:14;;;;;;;6.90;4.38;;;4.70;99.90;;;;;;5078590;28;20108;-75
2023/03/23 04:25:41;;;;;;;9.77;3.95;;;4.70;99.90;;;;;;5096448;28;20034;-75
2023/03/23 04:28:09;;;;;;;6.75;4.65;;;4.70;99.90;;;;;;5095646;28;20418;-75
2023/03/23 04:30:36;;;;;;;8.23;4.43;;;4.70;99.90;;;;;;5077951;28;20024;-73
2023/03/23 04:33:02;;;;;;;9.88;4.20;;;4.60;99.90;;;;;;5078196;28;20134;-74
2023/03/23 04:35:30;;;;;;;8.00;4.03;;;4.60;99.90;;;;;;5096325;28;20070;-75
2023/03/23 04:37:57;;;;;;;5.70;4.20;;;4.60;99.90;;;;;;5077903;28;20027;-74
2023/03/23 04:40:23;;;;;;;7.60;4.13;;;4.60;99.90;;;;;;5077820;28;20028;-75
2023/03/23 04:42:51;;;;;;;8.65;4.20;;;4.60;99.90;;;;;;5077412;28;20032;-75
2023/03/23 04:45:21;;;;;;;6.03;3.33;;;4.60;99.90;;;;;;5077232;28;20077;-74
2023/03/23 04:47:57;;;;;;;8.57;4.30;;;4.60;99.90;;;;;;5077965;28;20024;-74
2023/03/23 04:50:26;;;;;;;5.70;4.00;;;4.60;99.90;;;;;;5095625;28;20027;-74
2023/03/23 04:52:53;;;;;;;7.97;4.80;;;4.60;99.90;;;;;;5094567;28;20508;-74
2023/03/23 04:55:20;;;;;;;6.47;4.38;;;4.60;99.90;;;;;;5077309;28;20024;-74
2023/03/23 04:57:47;;;;;;;8.32;4.30;;;4.60;99.90;;;;;;5096995;28;20039;-74
2023/03/23 05:00:16;;;;;;;7.05;4.28;;;4.60;99.90;;;;;;5095905;28;20095;-74
2023/03/23 05:02:52;;;;;;;9.55;4.60;;;4.70;99.90;;;;;;5095793;28;20024;-74
2023/03/23 05:05:20;;;;;;;9.40;4.53;;;4.60;99.90;;;;;;5077932;28;20027;-74
2023/03/23 05:07:46;;;;;;;6.13;4.45;;;4.70;99.90;;;;;;5076915;28;20073;-74
2023/03/23 05:10:12;;;;;;;8.65;4.32;;;4.70;99.90;;;;;;5095200;28;20028;-74
2023/03/23 05:12:39;;;;;;;5.75;4.32;;;4.70;99.90;;;;;;5095292;28;20413;-74
2023/03/23 05:15:06;;;;;;;7.85;4.20;;;4.70;99.90;;;;;;5076883;28;20116;-73
2023/03/23 05:17:33;;;;;;;8.02;4.55;;;4.80;99.90;;;;;;5060013;28;20449;-73
2023/03/23 05:20:00;;;;;;;5.70;3.85;;;4.80;99.90;;;;;;5095285;28;20024;-74
2023/03/23 05:22:32;;;;;;;6.72;4.00;;;4.80;99.90;;;;;;5077671;28;20115;-72
2023/03/23 05:24:58;;;;;;;6.10;3.97;;;4.90;99.90;;;;;;5078169;28;20024;-74
2023/03/23 05:27:27;;;;;;;6.68;4.47;;;4.90;99.90;;;;;;5096743;28;20024;-72
2023/03/23 05:29:53;;;;;;;4.88;4.20;;;5.00;99.90;;;;;;5078815;28;20379;-72
2023/03/23 05:32:19;;;;;;;8.13;4.38;;;5.10;99.90;;;;;;5078238;28;20032;-72
2023/03/23 05:34:46;;;;;;;8.20;4.97;;;5.10;99.90;;;;;;5079337;28;20032;-72
2023/03/23 05:37:13;;;;;;;8.30;4.55;;;5.20;99.90;;;;;;5097270;28;20066;-72
2023/03/23 05:39:39;;;;;;;6.78;4.13;;;5.30;99.90;;;;;;5097147;28;20520;-72
2023/03/23 05:42:06;;;;;;;11.45;4.97;;;5.40;99.90;;;;;;5078694;28;20365;-72
2023/03/23 05:44:32;;;;;;;9.10;4.80;;;5.50;99.90;;;;;;5079268;28;20030;-72
2023/03/23 05:46:57;;;;;;;13.52;5.65;;;5.60;99.90;;;;;;5079499;28;20543;-72
2023/03/23 05:49:24;;;;;;;8.82;4.75;;;5.70;99.90;;;;;;5077197;28;20071;-72
2023/03/23 05:51:50;;;;;;;11.38;5.13;;;5.80;99.90;;;;;;5095162;28;20062;-73
2023/03/23 05:54:16;;;;;;;7.53;5.32;;;5.90;99.90;;;;;;5077331;28;20067;-74
2023/03/23 05:56:42;;;;;;;8.40;5.05;;;6.00;99.90;;;;;;5076883;28;20024;-73
2023/03/23 05:59:09;;;;;;;7.65;5.13;;;6.10;99.90;;;;;;5094777;28;20180;-74
2023/03/23 06:01:36;;;;;;;5.05;4.43;;;6.20;99.90;;;;;;5095017;28;20046;-74
2023/03/23 06:04:02;;;;;;;14.07;4.97;;;6.30;99.90;;;;;;5094887;28;20460;-72
2023/03/23 06:06:32;;;;;;;6.15;4.32;;;6.40;99.90;;;;;;5077157;28;20028;-72
2023/03/23 06:08:58;;;;;;;8.30;4.47;;;6.50;99.90;;;;;;5094349;28;20028;-72
2023/03/23 06:11:25;;;;;;;6.97;4.50;;;6.60;99.90;;;;;;5095703;28;20049;-72
2023/03/23 06:13:52;;;;;;;9.07;4.10;;;6.70;99.90;;;;;;5077898;28;20032;-73
2023/03/23 06:16:18;;;;;;;7.90;4.35;;;6.80;99.90;;;;;;5077193;28;20028;-73
2023/03/23 06:18:44;;;;;;;8.30;4.63;;;6.90;99.90;;;;;;5077988;28;20495;-72
2023/03/23 06:21:12;;;;;;;8.88;4.32;;;7.00;99.90;;;;;;5095919;28;20028;-72
2023/03/23 06:23:38;;;;;;;12.18;4.40;;;7.10;99.90;;;;;;5076788;28;20383;-73
2023/03/23 06:26:06;;;;;;;7.95;4.30;;;7.20;99.90;;;;;;5094970;28;20020;-73
2023/03/23 06:28:33;;;;;;;10.75;3.95;;;7.40;99.90;;;;;;5092352;28;20024;-73
2023/03/23 06:31:01;;;;;;;7.93;4.32;;;7.60;99.90;;;;;;5093943;28;20024;-73
2023/03/23 06:33:27;;;;;;;7.05;3.70;;;7.90;99.90;;;;;;5075761;28;20034;-73
2023/03/23 06:35:52;;;;;;;7.82;4.22;;;8.40;99.90;;;;;;5094415;28;20095;-73
2023/03/23 06:38:18;;;;;;;8.43;4.28;;;8.80;99.90;;;;;;5075915;28;20039;-73
2023/03/23 06:40:46;;;;;;;6.50;3.83;;;9.10;99.90;;;;;;5098457;28;20052;-73
2023/03/23 06:43:12;;;;;;;7.93;4.17;;;9.40;99.90;;;;;;5097398;28;20472;-72
2023/03/23 06:45:38;;;;;;;6.88;3.63;;;9.70;99.90;;;;;;5076411;28;20344;-72
2023/03/23 06:48:04;;;;;;;7.82;3.55;;;9.90;99.90;;;;;;5093203;28;20020;-72
2023/03/23 06:50:29;;;;;;;8.52;5.22;;;10.00;99.90;;;;;;5093178;28;20545;-70
2023/03/23 06:52:55;;;;;;;7.25;3.28;;;10.10;99.90;;;;;;5076679;28;20052;-72
2023/03/23 06:55:21;;;;;;;10.38;4.07;;;10.00;99.90;;;;;;5078257;28;20031;-71
2023/03/23 06:57:47;;;;;;;5.55;3.35;;;9.90;99.90;;;;;;5072136;28;20036;-72
2023/03/23 07:00:13;;;;;;;6.10;3.33;;;9.90;99.90;;;;;;5086450;28;20028;-72
2023/03/23 07:02:40;;;;;;;8.95;3.35;;;10.00;99.90;;;;;;5085297;28;20039;-75
2023/03/23 07:05:08;;;;;;;5.25;3.42;;;10.00;99.90;;;;;;5086379;28;20060;-71
2023/03/23 07:07:35;;;;;;;5.73;3.73;;;10.10;99.90;;;;;;5067417;28;20036;-74
2023/03/23 07:10:02;;;;;;;7.22;3.72;;;10.10;99.90;;;;;;5068256;28;20274;-72
2023/03/23 07:12:28;;;;;;;9.38;3.95;;;10.00;99.90;;;;;;5086553;28;20125;-73
2023/03/23 07:14:55;;;;;;;6.82;3.83;;;10.00;99.90;;;;;;5084373;28;20065;-73
2023/03/23 07:17:21;;;;;;;7.07;4.07;;;10.10;99.90;;;;;;5086694;28;20111;-73
2023/03/23 07:19:47;;;;;;;9.05;3.80;;;10.20;99.90;;;;;;5067597;28;20601;-73
2023/03/23 07:22:12;;;;;;;5.55;3.85;;;10.30;99.90;;;;;;5085157;28;21248;-73
2023/03/23 07:24:38;;;;;;;4.28;2.90;;;10.30;99.90;;;;;;5085506;28;20396;-73
2023/03/23 07:27:03;;;;;;;5.18;3.13;;;10.40;99.90;;;;;;5086282;28;20474;-74
2023/03/23 07:29:30;;;;;;;4.68;2.80;;;10.40;99.90;;;;;;5085765;28;20418;-73
2023/03/23 07:31:56;;;;;;;7.85;2.53;;;10.40;99.90;;;;;;5067151;28;20123;-73
2023/03/23 07:34:22;;;;;;;6.82;2.65;;;10.40;99.90;;;;;;5084151;28;20032;-73
2023/03/23 07:36:48;;;;;;;4.38;2.38;;;10.50;99.90;;;;;;5067043;28;20042;-73
2023/03/23 07:39:14;;;;;;;4.80;2.80;;;10.60;99.90;;;;;;5085171;28;20032;-74
2023/03/23 07:41:39;;;;;;;7.18;3.75;;;10.80;99.90;;;;;;5085084;28;20032;-73
2023/03/23 07:44:06;;;;;;;9.43;3.40;;;11.10;99.90;;;;;;5084394;28;20035;-74
2023/03/23 07:46:32;;;;;;;6.60;2.95;;;11.30;99.90;;;;;;5067333;28;20032;-73
2023/03/23 07:48:58;;;;;;;4.32;2.63;;;11.60;99.90;;;;;;5083380;28;20407;-74
2023/03/23 07:51:24;;;;;;;9.35;3.17;;;11.90;99.90;;;;;;5084607;28;20051;-72
2023/03/23 07:53:51;;;;;;;5.45;3.28;;;12.10;99.90;;;;;;5084823;28;20040;-73
2023/03/23 07:56:19;;;;;;;4.68;3.53;;;12.40;99.90;;;;;;5067287;28;20082;-72
2023/03/23 07:58:45;;;;;;;6.32;3.83;;;12.50;99.90;;;;;;5067881;28;20036;-73
2023/03/23 08:01:12;;;;;;;7.30;4.53;;;12.70;99.90;;;;;;5066270;28;20028;-72
2023/03/23 08:03:37;;;;;;;12.35;6.00;;;12.90;99.90;;;;;;5084553;28;20027;-72
2023/03/23 08:06:05;;;;;;;14.18;7.60;;;12.80;99.90;;;;;;5066714;28;21499;-72
2023/03/23 08:08:31;;;;;;;7.50;5.57;;;12.90;99.90;;;;;;5065472;28;20085;-74
2023/03/23 08:10:57;;;;;;;11.60;6.72;;;13.00;99.90;;;;;;5065630;28;20032;-72
2023/03/23 08:13:24;;;;;;;8.82;5.60;;;13.10;99.90;;;;;;5083728;28;20043;-73
2023/03/23 08:15:51;;;;;;;10.77;5.97;;;13.20;99.90;;;;;;5084569;28;20048;-72
2023/03/23 08:18:17;;;;;;;7.95;5.35;;;13.20;99.90;;;;;;5084562;28;20032;-73
2023/03/23 08:20:44;;;;;;;7.65;5.38;;;13.20;99.90;;;;;;5068088;28;20028;-72
2023/03/23 08:23:10;;;;;;;6.13;4.93;;;13.10;99.90;;;;;;5077441;28;20035;-72
2023/03/23 08:25:36;;;;;;;6.82;4.95;;;13.10;99.90;;;;;;5077188;28;20074;-72
2023/03/23 08:28:02;;;;;;;5.53;4.93;;;13.10;99.90;;;;;;5095759;28;20035;-72
2023/03/23 08:30:32;;;;;;;13.90;5.50;;;13.10;99.90;;;;;;5095207;28;20191;-72
2023/03/23 08:33:00;;;;;;;7.50;5.28;;;13.10;99.90;;;;;;5095373;28;20082;-72
2023/03/23 08:35:26;;;;;;;13.10;5.45;;;13.10;99.90;;;;;;5095384;28;20024;-74
2023/03/23 08:37:52;;;;;;;10.20;5.63;;;13.20;99.90;;;;;;5092815;28;20028;-72
2023/03/23 08:40:21;;;;;;;7.78;4.97;;;13.70;99.90;;;;;;5064870;28;21470;-65
2023/03/23 08:42:48;;;;;;;8.23;5.03;;;14.40;99.90;;;;;;5065147;28;20390;-64
2023/03/23 08:45:17;;;;;;;6.30;5.07;;;15.20;98.50;;;;;;5065893;28;20042;-72
2023/03/23 08:47:44;;;;;;;6.97;4.78;;;16.30;95.20;;;;;;5084295;28;20124;-72
2023/03/23 08:50:13;;;;;;;7.30;4.78;;;17.30;91.80;;;;;;5083244;28;20047;-74
2023/03/23 08:52:39;;;;;;;7.57;4.82;;;18.20;82.70;;;;;;5084108;28;20563;-72
2023/03/23 08:55:08;;;;;;;6.40;4.80;;;18.60;76.40;;;;;;5084160;28;20036;-72
2023/03/23 08:57:35;;;;;;;11.20;5.43;;;19.10;73.20;;;;;;5066935;28;20020;-72
2023/03/23 09:00:17;;;;;;;8.23;4.78;;;19.70;67.20;;;;;;5065440;28;20128;-73
2023/03/23 09:02:45;;;;;;;6.85;4.70;;;19.90;65.20;;;;;;5064400;28;20092;-72
2023/03/23 09:05:11;;;;;;;9.27;5.07;;;20.30;63.40;;;;;;5084808;28;20027;-72
2023/03/23 09:07:38;;;;;;;6.72;4.78;;;19.30;59.90;;;;;;5091071;28;20065;-72
2023/03/23 09:10:05;;;;;;;10.60;5.53;;;20.70;59.70;;;;;;5094593;28;20027;-71
2023/03/23 09:12:31;;;;;;;10.18;5.00;;;20.50;59.60;;;;;;5076385;28;20032;-71
2023/03/23 09:14:56;;;;;;;7.60;5.18;;;20.80;59.30;;;;;;5075340;28;20479;-72
2023/03/23 09:17:22;;;;;;;12.25;4.90;;;21.30;58.30;;;;;;5094881;28;20020;-72
2023/03/23 09:19:48;;;;;;;8.60;4.63;;;22.10;56.50;;;;;;5077118;28;20030;-72
2023/03/23 09:22:15;;;;;;;7.25;4.95;;;22.80;54.20;;;;;;5094764;28;20016;-72
2023/03/23 09:24:41;;;;;;;6.88;5.13;;;23.20;51.80;;;;;;5075991;28;20070;-72
2023/03/23 09:27:07;;;;;;;7.65;4.93;;;22.70;52.20;;;;;;5076282;28;20020;-72
2023/03/23 09:29:32;;;;;;;8.98;5.60;;;23.00;51.50;;;;;;5094439;28;20023;-72
2023/03/23 09:31:59;;;;;;;13.25;6.05;;;23.20;50.50;;;;;;5076014;28;20035;-72
2023/03/23 09:34:25;;;;;;;12.98;5.80;;;23.60;49.60;;;;;;5076147;28;20036;-72
2023/03/23 09:36:51;;;;;;;10.93;5.43;;;24.00;47.80;;;;;;5076426;28;20050;-72
2023/03/23 09:39:17;;;;;;;9.50;5.28;;;24.30;46.40;;;;;;5076315;28;20016;-72
2023/03/23 09:42:16;;;;;;;10.20;4.80;;;24.40;45.70;;;;;;5093905;28;20512;-72
2023/03/23 09:45:16;;;;;;;11.25;4.82;;;24.90;44.80;;;;;;5094555;28;20026;-72
2023/03/23 09:48:13;;;;;;;4.88;4.05;;;25.30;43.20;;;;;;5093820;28;20020;-73
2023/03/23 09:50:43;;;;;;;13.55;4.43;;;25.80;42.50;;;;;;5075941;28;20101;-73
2023/03/23 09:53:23;;;;;;;9.70;4.60;;;26.00;41.80;;;;;;5093946;28;20098;-72
2023/03/23 09:55:50;;;;;;;7.47;4.28;;;25.50;41.40;;;;;;5075882;28;20024;-72
2023/03/23 09:58:19;;;;;;;13.95;5.25;;;25.40;41.10;;;;;;5093997;28;20024;-72
2023/03/23 10:01:13;;;;;;;10.75;4.55;;;24.80;42.60;;;;;;5075831;28;20115;-73
2023/03/23 10:03:43;;;;;;;12.55;5.53;;;24.00;43.20;;;;;;5075826;28;20455;-73
2023/03/23 10:06:20;;;;;;;10.85;4.63;;;24.20;43.90;;;;;;5093945;28;20107;-72
2023/03/23 10:08:54;;;;;;;9.48;5.13;;;25.00;42.40;;;;;;5093734;28;20022;-72
2023/03/23 10:11:53;;;;;;;11.10;5.22;;;25.10;41.70;;;;;;5075822;28;20016;-73
2023/03/23 10:14:42;;;;;;;8.68;5.65;;;25.80;41.60;;;;;;5075700;28;20161;-64
2023/03/23 10:17:15;;;;;;;12.13;5.90;;;26.80;39.90;;;;;;5034819;28;20120;-64
2023/03/23 10:20:07;;;;;;;11.60;6.93;;;27.10;38.20;;;;;;5093782;28;20025;-64
2023/03/23 10:22:39;;;;;;;15.35;7.70;;;26.30;39.10;;;;;;5085357;28;20428;-63
2023/03/23 10:25:11;;;;;;;15.85;7.90;;;25.20;40.70;;;;;;5095171;28;20027;-64
2023/03/23 10:28:01;;;;;;;14.52;7.53;;;25.00;41.40;;;;;;5079700;28;20065;-71
2023/03/23 10:30:36;;;;;;;15.60;6.75;;;25.30;41.10;;;;;;5080479;28;20023;-71
2023/03/23 10:33:14;;;;;;;15.93;7.22;;;26.00;40.80;;;;;;5080071;28;20077;-71
2023/03/23 10:35:48;;;;;;;16.70;7.50;;;26.70;40.10;;;;;;5080051;28;20350;-72
2023/03/23 10:38:21;;;;;;;23.10;8.63;;;27.30;38.70;;;;;;5080087;28;20115;-72
2023/03/23 10:40:57;;;;;;;21.00;7.95;;;27.50;38.30;;;;;;5098130;28;20066;-72
2023/03/23 10:43:24;;;;;;;14.95;7.75;;;27.80;38.00;;;;;;5097698;28;20123;-72
2023/03/23 10:45:59;;;;;;;15.80;7.63;;;28.00;37.60;;;;;;5079663;28;20076;-71
2023/03/23 10:48:33;;;;;;;21.15;8.13;;;28.10;37.50;;;;;;5097806;28;20024;-71
2023/03/23 10:51:02;;;;;;;11.77;7.32;;;28.30;37.40;;;;;;5079589;28;20078;-71
2023/03/23 10:53:43;;;;;;;16.17;6.72;;;28.00;37.80;;;;;;5079566;28;20444;-70
2023/03/23 10:56:34;;;;;;;11.98;6.70;;;28.10;37.30;;;;;;5097137;28;20096;-71
2023/03/23 10:59:26;;;;;;;14.70;6.90;;;28.10;37.60;;;;;;5097848;28;20427;-70
2023/03/23 11:01:55;;;;;;;18.60;6.47;;;28.30;37.30;;;;;;5097009;28;20065;-71
2023/03/23 11:04:23;;;;;;;16.73;6.43;;;28.30;37.60;;;;;;5097145;28;20448;-71
2023/03/23 11:06:52;;;;;;;11.07;5.90;;;29.20;36.80;;;;;;5096855;28;20054;-71
2023/03/23 11:09:33;;;;;;;8.73;6.43;;;29.60;36.60;;;;;;5097094;28;20016;-71
2023/03/23 11:11:58;;;;;;;10.25;5.22;;;29.50;35.80;;;;;;5096789;28;20474;-71
2023/03/23 11:14:27;;;;;;;11.02;5.25;;;29.30;35.70;;;;;;5096643;28;20028;-71
2023/03/23 11:16:58;;;;;;;7.30;4.88;;;29.10;36.10;;;;;;5078333;28;20016;-70
2023/03/23 11:19:37;;;;;;;13.15;5.10;;;29.00;35.80;;;;;;5078549;28;20115;-71
2023/03/23 11:22:36;;;;;;;7.93;4.20;;;28.50;36.20;;;;;;5096412;28;20400;-73
2023/03/23 11:25:05;;;;;;;9.93;4.63;;;28.50;36.40;;;;;;5096782;28;20023;-72
2023/03/23 11:27:32;;;;;;;7.55;3.80;;;27.90;37.00;;;;;;5078472;28;20016;-71
2023/03/23 11:30:19;;;;;;;10.10;3.35;;;27.70;36.60;;;;;;5096849;28;20023;-71
2023/03/23 11:32:46;;;;;;;12.82;3.90;;;27.00;36.80;;;;;;5078441;28;20054;-72
2023/03/23 11:35:19;;;;;;;10.02;4.10;;;26.50;37.60;;;;;;5078402;28;20020;-71
2023/03/23 11:37:54;;;;;;;8.52;3.17;;;26.00;37.90;;;;;;5077483;28;20031;-72
2023/03/23 11:40:23;;;;;;;7.75;3.10;;;26.00;38.40;;;;;;5078474;28;20024;-72
2023/03/23 11:43:18;;;;;;;4.97;2.80;;;25.80;38.20;;;;;;5078262;28;20471;-72
2023/03/23 11:46:15;;;;;;;6.28;3.30;;;25.40;39.00;;;;;;5078223;28;20042;-72
2023/03/23 11:49:01;;;;;;;5.43;3.80;;;25.00;39.70;;;;;;5078340;28;20024;-72
2023/03/23 11:51:37;;;;;;;12.50;3.20;;;24.50;40.50;;;;;;5078008;28;20040;-63
2023/03/23 11:54:06;;;;;;;3.90;3.28;;;24.10;41.80;;;;;;5096245;28;20540;-73
2023/03/23 11:56:37;;;;;;;10.25;3.17;;;24.00;42.20;;;;;;5096477;28;20150;-73
2023/03/23 11:59:17;;;;;;;7.82;3.47;;;23.60;42.50;;;;;;5096467;28;20054;-73
2023/03/23 12:01:55;;;;;;;11.23;3.20;;;23.30;43.20;;;;;;5096121;28;20091;-72
2023/03/23 12:05:02;;;;;;;10.75;3.55;;;23.00;44.10;;;;;;5095524;28;20371;-72
2023/03/23 12:07:47;;;;;;;14.30;3.55;;;22.70;45.00;;;;;;5055590;28;20110;-72
2023/03/23 12:10:29;;;;;;;9.63;4.05;;;22.40;45.30;;;;;;5096078;28;20020;-72
2023/03/23 12:13:13;;;;;;;5.13;3.33;;;22.40;45.60;;;;;;5095823;28;20038;-71
2023/03/23 12:15:53;;;;;;;9.63;3.55;;;22.30;45.80;;;;;;5077587;28;20117;-72
2023/03/23 12:18:28;;;;;;;19.05;3.83;;;22.20;45.60;;;;;;5095961;28;20024;-72
2023/03/23 12:21:05;;;;;;;7.35;2.92;;;22.20;45.90;;;;;;5077905;28;20379;-72
2023/03/23 12:23:57;;;;;;;13.43;3.35;;;22.10;45.80;;;;;;5095703;28;20047;-72
2023/03/23 12:26:39;;;;;;;7.50;2.65;;;22.30;45.80;;;;;;5095364;28;20012;-72
2023/03/23 12:29:13;;;;;;;12.10;3.35;;;22.50;44.70;;;;;;5095773;28;20039;-72
2023/03/23 12:31:56;;;;;;;10.55;4.03;;;22.50;44.90;;;;;;5095708;28;20024;-72
2023/03/23 12:35:03;;;;;;;7.78;3.35;;;22.60;45.20;;;;;;5076873;28;20088;-72
2023/03/23 12:37:46;;;;;;;5.90;3.78;;;22.60;45.20;;;;;;5075869;28;20087;-74
2023/03/23 12:40:23;;;;;;;8.82;3.42;;;22.40;45.70;;;;;;5076921;28;20032;-73
2023/03/23 12:42:59;;;;;;;25.02;5.00;;;22.50;46.20;;;;;;5076640;28;20032;-73
2023/03/23 12:45:25;;;;;;;11.60;3.80;;;22.40;46.50;;;;;;5076655;28;20077;-73
2023/03/23 12:48:13;;;;;;;13.45;3.75;;;22.50;46.10;;;;;;5095101;28;20036;-73
2023/03/23 12:51:02;;;;;;;9.50;4.60;;;22.60;45.30;;;;;;5094686;28;20028;-73
2023/03/23 12:53:36;;;;;;;7.20;3.78;;;22.40;45.50;;;;;;5076357;28;20622;-73
2023/03/23 12:56:22;;;;;;;9.77;4.10;;;22.40;44.50;;;;;;5076873;28;20020;-73
2023/03/23 12:58:53;;;;;;;8.20;3.92;;;22.30;45.00;;;;;;5094914;28;20027;-73
2023/03/23 13:01:26;;;;;;;7.60;3.80;;;22.50;44.90;;;;;;5076658;28;20032;-73
2023/03/23 13:04:16;;;;;;;8.85;3.92;;;22.90;44.70;;;;;;5076094;28;20126;-73
2023/03/23 13:06:45;;;;;;;8.80;4.78;;;23.90;43.60;;;;;;5095052;28;20028;-72
2023/03/23 13:09:25;;;;;;;6.30;4.40;;;24.60;42.10;;;;;;5094575;28;20027;-73